createdAt,value
2023-01-13T00:01:26.925Z,99.01
2023-01-13T00:03:53.859Z,98.33
2023-01-13T00:06:23.773Z,98.86
2023-01-13T00:08:52.588Z,99.53
2023-01-13T00:11:21.087Z,99.05
2023-01-13T00:13:48.125Z,97.05
2023-01-13T00:16:18.060Z,96.73
2023-01-13T00:18:45.468Z,97.53
2023-01-13T00:21:14.476Z,97.84
2023-01-13T00:23:42.219Z,97.98
2023-01-13T00:26:12.534Z,96.08
2023-01-13T00:28:39.514Z,97.68
2023-01-13T00:31:07.861Z,96.47
2023-01-13T00:33:35.614Z,98.05
2023-01-13T00:36:04.148Z,97.34
2023-01-13T00:38:32.886Z,97.23
2023-01-13T00:41:01.324Z,97.49
2023-01-13T00:43:31.488Z,98.09
2023-01-13T00:45:59.209Z,97.94
2023-01-13T00:48:27.042Z,96.23
2023-01-13T00:50:58.570Z,95.85
2023-01-13T00:53:26.214Z,94.90
2023-01-13T00:55:59.383Z,93.92
2023-01-13T00:58:26.355Z,94.12
2023-01-13T01:00:55.081Z,94.80
2023-01-13T01:03:21.963Z,95.04
2023-01-13T01:05:49.041Z,95.20
2023-01-13T01:08:16.970Z,95.63
2023-01-13T01:10:44.015Z,95.17
2023-01-13T01:13:10.901Z,94.94
2023-01-13T01:15:40.247Z,94.48
2023-01-13T01:18:08.687Z,94.69
2023-01-13T01:20:37.069Z,95.24
2023-01-13T01:23:04.339Z,95.84
2023-01-13T01:25:32.750Z,95.98
2023-01-13T01:28:00.324Z,96.81
2023-01-13T01:30:27.270Z,97.45
2023-01-13T01:32:54.501Z,97.60
2023-01-13T01:35:22.818Z,98.33
2023-01-13T01:37:49.763Z,97.17
2023-01-13T01:40:17.975Z,98.21
2023-01-13T01:42:44.835Z,98.49
2023-01-13T01:45:17.854Z,98.33
2023-01-13T01:47:48.429Z,98.75
2023-01-13T01:50:16.652Z,100.00
2023-01-13T01:52:49.388Z,99.99
2023-01-13T01:55:20.093Z,99.99
2023-01-13T01:57:51.713Z,99.67
2023-01-13T02:00:18.932Z,99.75
2023-01-13T02:02:50.187Z,99.55
2023-01-13T02:05:17.926Z,100.00
2023-01-13T02:07:48.903Z,100.00
2023-01-13T02:10:18.243Z,99.53
2023-01-13T02:12:46.544Z,99.21
2023-01-13T02:15:17.737Z,98.75
2023-01-13T02:18:05.951Z,99.10
2023-01-13T02:20:58.418Z,100.00
2023-01-13T02:23:54.873Z,100.00
2023-01-13T02:27:02.097Z,99.55
2023-01-13T02:29:48.778Z,99.49
2023-01-13T02:32:21.812Z,99.09
2023-01-13T02:34:56.503Z,99.66
2023-01-13T02:37:28.807Z,99.20
2023-01-13T02:39:59.425Z,98.61
2023-01-13T02:42:32.436Z,98.65
2023-01-13T02:45:04.776Z,98.05
2023-01-13T02:47:35.901Z,98.05
2023-01-13T02:50:07.094Z,98.18
2023-01-13T02:52:38.328Z,98.31
2023-01-13T02:55:09.513Z,99.16
2023-01-13T02:57:38.293Z,100.00
2023-01-13T03:00:12.248Z,100.00
2023-01-13T03:02:39.337Z,100.00
2023-01-13T03:05:06.944Z,100.00
2023-01-13T03:07:44.946Z,100.00
2023-01-13T03:10:22.231Z,99.82
2023-01-13T03:12:57.973Z,98.24
2023-01-13T03:15:37.925Z,97.49
2023-01-13T03:18:13.923Z,97.09
2023-01-13T03:20:49.219Z,96.45
2023-01-13T03:23:19.336Z,96.80
2023-01-13T03:25:55.977Z,97.67
2023-01-13T03:28:30.255Z,97.97
2023-01-13T03:31:04.366Z,98.99
2023-01-13T03:33:35.709Z,98.65
2023-01-13T03:36:08.373Z,97.18
2023-01-13T03:38:38.415Z,98.96
2023-01-13T03:41:08.829Z,97.93
2023-01-13T03:43:39.015Z,96.66
2023-01-13T03:46:20.465Z,94.69
2023-01-13T03:48:52.575Z,95.22
2023-01-13T03:51:25.527Z,94.63
2023-01-13T03:53:57.214Z,93.34
2023-01-13T03:56:29.885Z,93.25
2023-01-13T03:59:00.844Z,92.89
2023-01-13T04:01:35.301Z,92.53
2023-01-13T04:04:06.343Z,92.12
2023-01-13T04:06:39.438Z,94.75
2023-01-13T04:09:15.606Z,93.04
2023-01-13T04:11:47.116Z,94.08
2023-01-13T04:14:17.306Z,93.31
2023-01-13T04:16:45.477Z,94.36
2023-01-13T04:19:12.549Z,93.69
2023-01-13T04:21:39.389Z,92.78
2023-01-13T04:24:06.795Z,92.44
2023-01-13T04:26:33.580Z,92.35
2023-01-13T04:29:00.312Z,93.47
2023-01-13T04:31:27.483Z,93.83
2023-01-13T04:33:55.642Z,93.85
2023-01-13T04:36:22.832Z,93.09
2023-01-13T04:38:50.830Z,93.33
2023-01-13T04:41:17.980Z,92.29
2023-01-13T04:43:44.773Z,92.55
2023-01-13T04:46:11.991Z,93.11
2023-01-13T04:48:38.912Z,93.52
2023-01-13T04:51:07.663Z,93.41
2023-01-13T04:53:34.462Z,92.67
2023-01-13T04:56:01.261Z,93.30
2023-01-13T04:58:28.052Z,94.23
2023-01-13T05:00:54.863Z,94.04
2023-01-13T05:03:21.755Z,94.62
2023-01-13T05:05:51.501Z,94.73
2023-01-13T05:08:19.480Z,94.37
2023-01-13T05:10:46.307Z,92.19
2023-01-13T05:13:13.242Z,91.95
2023-01-13T05:15:40.762Z,91.45
2023-01-13T05:18:07.769Z,92.45
2023-01-13T05:20:34.883Z,91.08
2023-01-13T05:23:01.717Z,91.59
2023-01-13T05:25:30.037Z,91.76
2023-01-13T05:27:58.545Z,91.44
2023-01-13T05:30:26.806Z,91.52
2023-01-13T05:32:53.924Z,92.36
2023-01-13T05:35:20.708Z,91.73
2023-01-13T05:37:47.631Z,91.70
2023-01-13T05:40:16.757Z,93.17
2023-01-13T05:42:45.092Z,95.21
2023-01-13T05:45:12.501Z,94.23
2023-01-13T05:47:39.629Z,94.31
2023-01-13T05:50:07.007Z,93.44
2023-01-13T05:52:33.943Z,93.77
2023-01-13T05:55:00.686Z,93.67
2023-01-13T05:57:27.544Z,93.44
2023-01-13T05:59:55.797Z,93.47
2023-01-13T06:02:22.738Z,94.85
2023-01-13T06:04:49.499Z,95.90
2023-01-13T06:07:16.390Z,97.01
2023-01-13T06:09:43.049Z,98.53
2023-01-13T06:12:11.794Z,100.00
2023-01-13T06:14:38.601Z,100.00
2023-01-13T06:17:07.503Z,100.00
2023-01-13T06:19:34.298Z,100.00
2023-01-13T06:22:08.433Z,100.00
2023-01-13T06:24:36.341Z,100.00
2023-01-13T06:27:05.027Z,100.00
2023-01-13T06:29:31.845Z,100.00
2023-01-13T06:31:59.550Z,100.00
2023-01-13T06:34:27.887Z,100.00
2023-01-13T06:36:56.224Z,100.00
2023-01-13T06:39:26.681Z,100.00
2023-01-13T06:41:54.657Z,100.00
2023-01-13T06:44:23.570Z,100.00
2023-01-13T06:46:51.356Z,100.00
2023-01-13T06:49:20.587Z,100.00
2023-01-13T06:51:49.427Z,100.00
2023-01-13T06:54:16.313Z,100.00
2023-01-13T06:56:43.011Z,100.00
2023-01-13T06:59:09.756Z,100.00
2023-01-13T07:01:36.604Z,100.00
2023-01-13T07:04:03.961Z,100.00
2023-01-13T07:06:31.007Z,100.00
2023-01-13T07:08:59.335Z,100.00
2023-01-13T07:11:26.129Z,100.00
2023-01-13T07:13:52.991Z,100.00
2023-01-13T07:16:20.141Z,100.00
2023-01-13T07:18:47.175Z,100.00
2023-01-13T07:21:14.202Z,100.00
2023-01-13T07:23:41.673Z,100.00
2023-01-13T07:26:11.213Z,100.00
2023-01-13T07:28:39.160Z,100.00
2023-01-13T07:31:12.457Z,100.00
2023-01-13T07:33:39.247Z,99.44
2023-01-13T07:36:07.200Z,99.68
2023-01-13T07:38:34.685Z,98.46
2023-01-13T07:41:01.743Z,97.96
2023-01-13T07:43:29.939Z,97.80
2023-01-13T07:45:57.152Z,98.19
2023-01-13T07:48:24.392Z,98.97
2023-01-13T07:50:51.399Z,97.78
2023-01-13T07:53:18.247Z,97.95
2023-01-13T07:55:45.317Z,98.38
2023-01-13T07:58:12.507Z,98.40
2023-01-13T08:00:40.797Z,97.50
2023-01-13T08:03:07.593Z,97.25
2023-01-13T08:08:44.804Z,97.50
2023-01-13T08:11:13.748Z,96.90
2023-01-13T08:13:45.274Z,96.66
2023-01-13T08:16:15.977Z,96.09
2023-01-13T08:18:43.272Z,95.76
2023-01-13T08:21:11.864Z,95.86
2023-01-13T08:23:39.302Z,96.51
2023-01-13T08:26:08.086Z,97.13
2023-01-13T08:28:35.107Z,97.75
2023-01-13T08:31:04.180Z,96.50
2023-01-13T08:33:33.146Z,96.65
2023-01-13T08:36:03.996Z,97.93
2023-01-13T08:38:31.412Z,97.36
2023-01-13T08:40:58.193Z,96.83
2023-01-13T08:43:25.185Z,96.80
2023-01-13T08:46:00.044Z,97.85
2023-01-13T08:48:29.781Z,96.67
2023-01-13T08:51:04.042Z,96.26
2023-01-13T08:53:31.177Z,97.34
2023-01-13T08:55:58.098Z,96.35
2023-01-13T08:58:27.402Z,96.02
2023-01-13T09:00:54.551Z,96.92
2023-01-13T09:03:21.464Z,95.28
2023-01-13T09:05:48.232Z,95.97
2023-01-13T09:08:16.393Z,95.55
2023-01-13T09:10:43.320Z,95.22
2023-01-13T09:13:13.578Z,95.04
2023-01-13T09:15:42.433Z,94.34
2023-01-13T09:18:09.566Z,95.00
2023-01-13T09:20:36.866Z,95.80
2023-01-13T09:23:04.000Z,97.34
2023-01-13T09:25:32.353Z,98.33
2023-01-13T09:27:59.153Z,97.55
2023-01-13T09:30:26.302Z,97.32
2023-01-13T09:32:53.093Z,97.81
2023-01-13T09:35:19.882Z,96.61
2023-01-13T09:37:46.695Z,95.75
2023-01-13T09:40:19.410Z,94.80
2023-01-13T09:42:54.842Z,94.75
2023-01-13T09:45:25.593Z,94.26
2023-01-13T09:47:57.152Z,94.34
2023-01-13T09:50:33.328Z,95.63
2023-01-13T09:53:00.719Z,94.92
2023-01-13T09:55:33.498Z,93.98
2023-01-13T09:58:10.457Z,94.45
2023-01-13T10:00:43.283Z,93.48
2023-01-13T10:03:21.881Z,94.77
2023-01-13T10:05:55.840Z,93.75
2023-01-13T10:08:25.924Z,94.55
2023-01-13T10:10:57.656Z,94.37
2023-01-13T10:13:28.039Z,93.81
2023-01-13T10:16:16.492Z,92.99
2023-01-13T10:18:56.969Z,92.33
2023-01-13T10:21:48.198Z,92.49
2023-01-13T10:24:23.704Z,92.65
2023-01-13T10:26:55.838Z,92.44
2023-01-13T10:29:25.688Z,93.37
2023-01-13T10:31:53.437Z,91.80
2023-01-13T10:34:21.045Z,93.43
2023-01-13T10:37:00.431Z,91.89
2023-01-13T10:39:28.401Z,92.19
2023-01-13T10:42:04.356Z,92.96
2023-01-13T10:44:38.416Z,92.92
2023-01-13T10:47:28.719Z,92.96
2023-01-13T10:50:21.989Z,93.33
2023-01-13T10:52:59.253Z,93.17
2023-01-13T10:55:29.122Z,92.68
2023-01-13T10:57:56.485Z,92.82
2023-01-13T11:00:31.022Z,92.39
2023-01-13T11:03:15.571Z,91.94
2023-01-13T11:05:50.008Z,92.77
2023-01-13T11:08:18.731Z,92.81
2023-01-13T11:10:48.041Z,92.31
2023-01-13T11:13:17.065Z,91.97
2023-01-13T11:15:50.683Z,91.99
2023-01-13T11:18:25.323Z,92.27
2023-01-13T11:20:54.732Z,92.68
2023-01-13T11:23:24.457Z,92.43
2023-01-13T11:25:56.995Z,93.13
2023-01-13T11:28:42.074Z,91.70
2023-01-13T11:31:18.693Z,92.33
2023-01-13T11:33:51.140Z,93.72
2023-01-13T11:36:21.437Z,91.92
2023-01-13T11:38:51.030Z,90.69
2023-01-13T11:41:27.654Z,91.42
2023-01-13T11:43:59.594Z,91.97
2023-01-13T11:46:28.399Z,91.72
2023-01-13T11:48:56.560Z,92.88
2023-01-13T11:51:32.692Z,92.69
2023-01-13T11:54:19.800Z,93.12
2023-01-13T11:57:17.963Z,92.60
2023-01-13T12:00:15.670Z,92.47
2023-01-13T12:02:53.876Z,92.64
2023-01-13T12:05:28.823Z,92.58
2023-01-13T12:08:04.829Z,93.90
2023-01-13T12:10:44.928Z,92.48
2023-01-13T12:13:24.218Z,93.73
2023-01-13T12:16:13.957Z,94.27
2023-01-13T12:18:55.610Z,94.13
2023-01-13T12:21:26.788Z,94.02
2023-01-13T12:24:05.982Z,93.76
2023-01-13T12:26:36.050Z,94.51
2023-01-13T12:29:06.257Z,94.14
2023-01-13T12:31:36.727Z,94.89
2023-01-13T12:34:27.759Z,94.94
2023-01-13T12:37:02.912Z,94.39
2023-01-13T12:39:42.604Z,95.09
2023-01-13T12:42:16.412Z,94.87
2023-01-13T12:45:19.186Z,94.87
2023-01-13T12:47:46.822Z,94.49
2023-01-13T12:50:58.088Z,93.81
2023-01-13T12:53:36.239Z,93.64
2023-01-13T12:56:30.519Z,94.33
2023-01-13T12:59:34.437Z,94.98
2023-01-13T13:02:31.088Z,94.27
2023-01-13T13:05:01.330Z,94.38
2023-01-13T13:07:41.114Z,95.00
2023-01-13T13:10:18.631Z,94.97
2023-01-13T13:12:57.843Z,93.96
2023-01-13T13:15:25.954Z,93.99
2023-01-13T13:18:19.483Z,92.93
2023-01-13T13:21:11.451Z,92.45
2023-01-13T13:24:01.634Z,93.14
2023-01-13T13:26:40.504Z,93.10
2023-01-13T13:29:40.107Z,93.30
2023-01-13T13:32:34.273Z,92.96
2023-01-13T13:35:20.833Z,92.13
2023-01-13T13:37:59.908Z,92.16
2023-01-13T13:40:32.450Z,92.27
2023-01-13T13:43:00.431Z,93.37
2023-01-13T13:45:28.128Z,92.91
2023-01-13T13:47:55.541Z,93.17
2023-01-13T13:50:22.740Z,93.18
2023-01-13T13:52:55.344Z,94.12
2023-01-13T13:55:24.017Z,92.55
2023-01-13T13:57:55.933Z,92.25
2023-01-13T14:00:25.931Z,92.39
2023-01-13T14:02:54.812Z,92.03
2023-01-13T14:05:24.062Z,91.97
2023-01-13T14:08:00.605Z,92.42
2023-01-13T14:10:32.712Z,92.60
2023-01-13T14:13:02.664Z,92.58
2023-01-13T14:15:35.493Z,91.90
2023-01-13T14:18:05.003Z,91.28
2023-01-13T14:20:32.460Z,91.16
2023-01-13T14:23:00.333Z,90.64
2023-01-13T14:25:29.406Z,92.29
2023-01-13T14:27:58.936Z,90.76
2023-01-13T14:30:27.487Z,91.24
2023-01-13T14:32:56.001Z,91.34
2023-01-13T14:35:22.770Z,90.79
2023-01-13T14:37:49.514Z,90.48
2023-01-13T14:40:42.151Z,90.43
2023-01-13T14:43:13.143Z,90.51
2023-01-13T14:45:53.861Z,90.29
2023-01-13T14:48:21.936Z,90.73
2023-01-13T14:50:48.725Z,91.40
2023-01-13T14:53:35.089Z,91.68
2023-01-13T14:56:35.104Z,90.81
2023-01-13T14:59:02.517Z,92.45
2023-01-13T15:01:41.196Z,92.15
2023-01-13T15:04:17.784Z,92.04
2023-01-13T15:06:48.321Z,93.81
2023-01-13T15:09:28.207Z,96.41
2023-01-13T15:14:39.175Z,99.51
2023-01-13T15:20:22.450Z,99.98
2023-01-13T15:22:50.686Z,98.07
2023-01-13T15:25:21.703Z,98.55
2023-01-13T15:27:53.097Z,97.44
2023-01-13T15:30:22.978Z,96.56
2023-01-13T15:32:58.197Z,96.23
2023-01-13T15:35:55.523Z,96.30
2023-01-13T15:38:25.577Z,96.64
2023-01-13T15:41:00.577Z,98.95
2023-01-13T15:43:32.492Z,100.00
2023-01-13T15:45:59.807Z,100.00
2023-01-13T15:48:35.793Z,100.00
2023-01-13T15:54:03.095Z,100.00
2023-01-13T15:56:30.977Z,100.00
2023-01-13T16:01:48.104Z,100.00
2023-01-13T16:04:15.222Z,100.00
2023-01-13T16:06:50.603Z,100.00
2023-01-13T16:16:08.116Z,100.00
2023-01-13T16:21:34.675Z,100.00
2023-01-13T16:24:28.057Z,100.00
2023-01-13T16:27:00.978Z,100.00
2023-01-13T16:29:29.146Z,100.00
2023-01-13T16:34:56.684Z,100.00
2023-01-13T16:50:38.774Z,100.00
2023-01-13T16:53:11.634Z,100.00
2023-01-13T16:55:41.485Z,100.00
2023-01-13T16:58:16.437Z,100.00
2023-01-13T17:00:43.492Z,100.00
2023-01-13T17:09:33.439Z,100.00
2023-01-13T17:15:26.445Z,100.00
2023-01-13T17:40:54.038Z,100.00
2023-01-13T17:43:23.209Z,100.00
2023-01-13T17:45:50.445Z,100.00
2023-01-13T17:48:18.516Z,100.00
2023-01-13T17:50:47.299Z,100.00
2023-01-13T17:53:14.289Z,100.00
2023-01-13T17:55:41.066Z,100.00
2023-01-13T17:58:07.924Z,100.00
2023-01-13T18:00:35.102Z,100.00
2023-01-13T18:03:02.054Z,100.00
2023-01-13T18:05:32.314Z,100.00
2023-01-13T18:08:03.044Z,100.00
2023-01-13T18:16:18.447Z,100.00
2023-01-13T18:19:02.603Z,100.00
2023-01-13T18:21:54.891Z,100.00
2023-01-13T18:24:28.581Z,100.00
2023-01-13T18:27:00.048Z,100.00
2023-01-13T18:29:26.924Z,100.00
2023-01-13T18:31:54.161Z,100.00
2023-01-13T18:37:12.973Z,100.00
2023-01-13T18:46:35.906Z,100.00
2023-01-13T19:01:12.683Z,100.00
2023-01-13T19:04:07.018Z,100.00
2023-01-13T19:09:33.751Z,99.87
2023-01-13T19:19:39.696Z,99.42
2023-01-13T19:22:07.367Z,99.48
2023-01-13T19:30:32.840Z,100.00
2023-01-13T19:41:11.741Z,98.38
2023-01-13T19:43:39.452Z,99.08
2023-01-13T19:46:10.142Z,98.06
2023-01-13T19:48:39.590Z,97.37
2023-01-13T19:51:08.991Z,99.25
2023-01-13T19:53:37.652Z,99.23
2023-01-13T19:56:05.847Z,99.23
2023-01-13T19:58:32.725Z,98.33
2023-01-13T20:00:59.868Z,99.51
2023-01-13T20:03:30.946Z,98.89
2023-01-13T20:06:05.711Z,99.62
2023-01-13T20:08:33.813Z,99.56
2023-01-13T20:11:01.116Z,100.00
2023-01-13T20:13:28.707Z,100.00
2023-01-13T20:15:55.695Z,100.00
2023-01-13T20:18:22.685Z,100.00
2023-01-13T20:23:37.256Z,100.00
2023-01-13T20:26:07.670Z,100.00
2023-01-13T20:31:16.969Z,100.00
2023-01-13T20:33:45.824Z,100.00
2023-01-13T20:36:25.336Z,100.00
2023-01-13T20:38:57.513Z,100.00
2023-01-13T20:42:00.591Z,99.91
2023-01-13T20:44:29.649Z,100.00
2023-01-13T20:46:59.232Z,99.87
2023-01-13T20:49:56.006Z,99.31
2023-01-13T20:52:30.586Z,99.83
2023-01-13T20:54:57.693Z,100.00
2023-01-13T20:57:25.818Z,100.00
2023-01-13T20:59:54.532Z,99.82
2023-01-13T21:02:21.276Z,100.00
2023-01-13T21:04:48.747Z,99.58
2023-01-13T21:07:15.812Z,98.75
2023-01-13T21:09:43.609Z,98.25
2023-01-13T21:12:13.755Z,98.92
2023-01-13T21:14:40.898Z,100.00
2023-01-13T21:17:25.277Z,99.19
2023-01-13T21:19:52.925Z,97.99
2023-01-13T21:22:22.050Z,98.38
2023-01-13T21:24:57.599Z,99.01
2023-01-13T21:27:29.884Z,99.80
2023-01-13T21:39:30.550Z,98.18
2023-01-13T21:42:17.613Z,98.94
2023-01-13T21:50:46.147Z,99.11
2023-01-13T22:08:55.079Z,98.52
2023-01-13T22:14:20.726Z,99.54
2023-01-13T22:59:21.658Z,100.00
2023-01-13T23:04:51.649Z,100.00
2023-01-13T23:07:23.558Z,100.00
2023-01-13T23:09:51.614Z,100.00
2023-01-13T23:12:22.772Z,100.00
2023-01-13T23:14:51.439Z,100.00
2023-01-13T23:17:19.312Z,100.00
2023-01-13T23:19:46.086Z,100.00
2023-01-13T23:22:38.624Z,100.00
2023-01-13T23:28:04.164Z,100.00
2023-01-13T23:34:07.596Z,100.00
2023-01-13T23:54:06.926Z,100.00
2023-01-13T23:56:37.607Z,100.00
2023-01-13T23:59:09.932Z,100.00
